sensor_id;sensor_type;location;lat;lon;timestamp;P1;durP1;ratioP1;P2;durP2;ratioP2
30127;SDS011;16942;53.196;6.592;2022-11-24T00:01:05;24.37;;;9.40;;
30127;SDS011;16942;53.196;6.592;2022-11-24T00:03:32;23.60;;;9.93;;
30127;SDS011;16942;53.196;6.592;2022-11-24T00:06:04;20.80;;;9.67;;
30127;SDS011;16942;53.196;6.592;2022-11-24T00:08:31;24.67;;;11.00;;
30127;SDS011;16942;53.196;6.592;2022-11-24T00:11:01;29.27;;;10.37;;
30127;SDS011;16942;53.196;6.592;2022-11-24T00:13:27;27.07;;;10.53;;
30127;SDS011;16942;53.196;6.592;2022-11-24T00:15:54;20.33;;;9.90;;
30127;SDS011;16942;53.196;6.592;2022-11-24T00:18:20;23.33;;;11.27;;
30127;SDS011;16942;53.196;6.592;2022-11-24T00:20:52;21.57;;;10.20;;
30127;SDS011;16942;53.196;6.592;2022-11-24T00:23:18;23.80;;;10.40;;
30127;SDS011;16942;53.196;6.592;2022-11-24T00:25:44;19.10;;;9.20;;
30127;SDS011;16942;53.196;6.592;2022-11-24T00:28:10;24.87;;;9.83;;
30127;SDS011;16942;53.196;6.592;2022-11-24T00:30:36;28.90;;;11.40;;
30127;SDS011;16942;53.196;6.592;2022-11-24T00:33:02;23.87;;;10.00;;
30127;SDS011;16942;53.196;6.592;2022-11-24T00:35:28;20.37;;;9.67;;
30127;SDS011;16942;53.196;6.592;2022-11-24T00:37:54;22.83;;;9.27;;
30127;SDS011;16942;53.196;6.592;2022-11-24T00:40:20;21.47;;;9.33;;
30127;SDS011;16942;53.196;6.592;2022-11-24T00:42:46;24.17;;;9.07;;
30127;SDS011;16942;53.196;6.592;2022-11-24T00:45:12;17.13;;;8.50;;
30127;SDS011;16942;53.196;6.592;2022-11-24T00:47:38;17.47;;;8.07;;
30127;SDS011;16942;53.196;6.592;2022-11-24T00:50:04;21.00;;;8.40;;
30127;SDS011;16942;53.196;6.592;2022-11-24T00:52:30;29.83;;;9.90;;
30127;SDS011;16942;53.196;6.592;2022-11-24T00:54:56;23.20;;;8.53;;
30127;SDS011;16942;53.196;6.592;2022-11-24T00:57:22;21.70;;;8.30;;
30127;SDS011;16942;53.196;6.592;2022-11-24T00:59:48;20.10;;;8.70;;
30127;SDS011;16942;53.196;6.592;2022-11-24T01:02:14;25.17;;;8.20;;
30127;SDS011;16942;53.196;6.592;2022-11-24T01:04:40;23.27;;;8.27;;
30127;SDS011;16942;53.196;6.592;2022-11-24T01:07:06;30.03;;;8.80;;
30127;SDS011;16942;53.196;6.592;2022-11-24T01:09:32;26.40;;;8.10;;
30127;SDS011;16942;53.196;6.592;2022-11-24T01:11:58;26.30;;;8.00;;
30127;SDS011;16942;53.196;6.592;2022-11-24T01:14:28;24.87;;;8.10;;
30127;SDS011;16942;53.196;6.592;2022-11-24T01:16:55;21.03;;;8.00;;
30127;SDS011;16942;53.196;6.592;2022-11-24T01:19:21;22.33;;;7.77;;
30127;SDS011;16942;53.196;6.592;2022-11-24T01:21:47;20.63;;;7.07;;
30127;SDS011;16942;53.196;6.592;2022-11-24T01:24:13;26.90;;;7.57;;
30127;SDS011;16942;53.196;6.592;2022-11-24T01:26:39;22.00;;;7.07;;
30127;SDS011;16942;53.196;6.592;2022-11-24T01:29:05;22.73;;;7.37;;
30127;SDS011;16942;53.196;6.592;2022-11-24T01:31:31;19.23;;;8.17;;
30127;SDS011;16942;53.196;6.592;2022-11-24T01:33:57;27.53;;;7.80;;
30127;SDS011;16942;53.196;6.592;2022-11-24T01:36:24;20.70;;;6.73;;
30127;SDS011;16942;53.196;6.592;2022-11-24T01:38:50;18.00;;;6.20;;
30127;SDS011;16942;53.196;6.592;2022-11-24T01:41:17;18.00;;;6.30;;
30127;SDS011;16942;53.196;6.592;2022-11-24T01:43:44;21.33;;;7.17;;
30127;SDS011;16942;53.196;6.592;2022-11-24T01:48:57;18.37;;;6.87;;
30127;SDS011;16942;53.196;6.592;2022-11-24T01:51:27;16.43;;;6.33;;
30127;SDS011;16942;53.196;6.592;2022-11-24T01:53:56;21.77;;;6.07;;
30127;SDS011;16942;53.196;6.592;2022-11-24T01:56:23;13.00;;;6.20;;
30127;SDS011;16942;53.196;6.592;2022-11-24T01:58:50;20.20;;;6.33;;
30127;SDS011;16942;53.196;6.592;2022-11-24T02:01:16;23.90;;;6.07;;
30127;SDS011;16942;53.196;6.592;2022-11-24T02:03:43;22.37;;;6.10;;
30127;SDS011;16942;53.196;6.592;2022-11-24T02:06:10;20.60;;;5.77;;
30127;SDS011;16942;53.196;6.592;2022-11-24T02:11:09;21.43;;;5.70;;
30127;SDS011;16942;53.196;6.592;2022-11-24T02:13:35;21.87;;;5.33;;
30127;SDS011;16942;53.196;6.592;2022-11-24T02:16:03;20.73;;;6.00;;
30127;SDS011;16942;53.196;6.592;2022-11-24T02:18:29;24.27;;;5.57;;
30127;SDS011;16942;53.196;6.592;2022-11-24T02:20:55;21.07;;;5.47;;
30127;SDS011;16942;53.196;6.592;2022-11-24T02:23:43;18.33;;;4.97;;
30127;SDS011;16942;53.196;6.592;2022-11-24T02:28:34;23.03;;;5.23;;
30127;SDS011;16942;53.196;6.592;2022-11-24T02:31:00;16.10;;;5.27;;
30127;SDS011;16942;53.196;6.592;2022-11-24T02:33:27;22.77;;;4.87;;
30127;SDS011;16942;53.196;6.592;2022-11-24T02:35:53;23.10;;;4.77;;
30127;SDS011;16942;53.196;6.592;2022-11-24T02:38:27;15.77;;;4.93;;
30127;SDS011;16942;53.196;6.592;2022-11-24T02:40:53;23.13;;;5.23;;
30127;SDS011;16942;53.196;6.592;2022-11-24T02:43:19;16.77;;;5.00;;
30127;SDS011;16942;53.196;6.592;2022-11-24T02:45:47;16.17;;;4.43;;
30127;SDS011;16942;53.196;6.592;2022-11-24T02:48:14;24.37;;;4.90;;
30127;SDS011;16942;53.196;6.592;2022-11-24T02:50:40;22.03;;;5.07;;
30127;SDS011;16942;53.196;6.592;2022-11-24T02:53:06;14.90;;;4.17;;
30127;SDS011;16942;53.196;6.592;2022-11-24T02:55:32;18.13;;;4.37;;
30127;SDS011;16942;53.196;6.592;2022-11-24T02:57:58;24.30;;;5.87;;
30127;SDS011;16942;53.196;6.592;2022-11-24T03:00:24;22.10;;;4.53;;
30127;SDS011;16942;53.196;6.592;2022-11-24T03:02:50;16.83;;;4.20;;
30127;SDS011;16942;53.196;6.592;2022-11-24T03:05:16;15.80;;;4.00;;
30127;SDS011;16942;53.196;6.592;2022-11-24T03:07:43;21.97;;;5.00;;
30127;SDS011;16942;53.196;6.592;2022-11-24T03:10:09;14.23;;;3.70;;
30127;SDS011;16942;53.196;6.592;2022-11-24T03:12:35;15.90;;;3.53;;
30127;SDS011;16942;53.196;6.592;2022-11-24T03:15:02;22.33;;;3.90;;
30127;SDS011;16942;53.196;6.592;2022-11-24T03:17:28;19.27;;;4.10;;
30127;SDS011;16942;53.196;6.592;2022-11-24T03:19:54;17.37;;;4.73;;
30127;SDS011;16942;53.196;6.592;2022-11-24T03:22:20;19.17;;;3.70;;
30127;SDS011;16942;53.196;6.592;2022-11-24T03:24:46;20.63;;;3.67;;
30127;SDS011;16942;53.196;6.592;2022-11-24T03:27:12;22.73;;;4.30;;
30127;SDS011;16942;53.196;6.592;2022-11-24T03:29:38;20.80;;;3.93;;
30127;SDS011;16942;53.196;6.592;2022-11-24T03:32:04;16.40;;;4.03;;
30127;SDS011;16942;53.196;6.592;2022-11-24T03:34:30;15.83;;;4.20;;
30127;SDS011;16942;53.196;6.592;2022-11-24T03:36:56;13.53;;;3.33;;
30127;SDS011;16942;53.196;6.592;2022-11-24T03:39:22;22.00;;;3.80;;
30127;SDS011;16942;53.196;6.592;2022-11-24T03:41:48;22.23;;;4.70;;
30127;SDS011;16942;53.196;6.592;2022-11-24T03:44:16;14.77;;;3.73;;
30127;SDS011;16942;53.196;6.592;2022-11-24T03:46:42;15.83;;;3.97;;
30127;SDS011;16942;53.196;6.592;2022-11-24T03:49:08;13.27;;;3.43;;
30127;SDS011;16942;53.196;6.592;2022-11-24T03:51:34;19.00;;;5.53;;
30127;SDS011;16942;53.196;6.592;2022-11-24T03:54:01;13.03;;;3.87;;
30127;SDS011;16942;53.196;6.592;2022-11-24T03:56:27;21.57;;;4.00;;
30127;SDS011;16942;53.196;6.592;2022-11-24T03:58:53;22.00;;;3.70;;
30127;SDS011;16942;53.196;6.592;2022-11-24T04:01:19;16.80;;;3.47;;
30127;SDS011;16942;53.196;6.592;2022-11-24T04:03:45;13.40;;;3.53;;
30127;SDS011;16942;53.196;6.592;2022-11-24T04:06:11;16.33;;;3.30;;
30127;SDS011;16942;53.196;6.592;2022-11-24T04:08:37;17.87;;;3.87;;
30127;SDS011;16942;53.196;6.592;2022-11-24T04:11:03;20.10;;;3.40;;
30127;SDS011;16942;53.196;6.592;2022-11-24T04:13:29;18.07;;;3.57;;
30127;SDS011;16942;53.196;6.592;2022-11-24T04:15:55;31.73;;;4.43;;
30127;SDS011;16942;53.196;6.592;2022-11-24T04:18:21;20.17;;;4.23;;
30127;SDS011;16942;53.196;6.592;2022-11-24T04:20:48;15.50;;;3.07;;
30127;SDS011;16942;53.196;6.592;2022-11-24T04:23:14;23.97;;;4.27;;
30127;SDS011;16942;53.196;6.592;2022-11-24T04:25:41;23.17;;;3.83;;
30127;SDS011;16942;53.196;6.592;2022-11-24T04:28:07;19.03;;;3.23;;
30127;SDS011;16942;53.196;6.592;2022-11-24T04:30:34;10.80;;;3.00;;
30127;SDS011;16942;53.196;6.592;2022-11-24T04:33:02;23.77;;;4.30;;
30127;SDS011;16942;53.196;6.592;2022-11-24T04:35:28;22.53;;;5.03;;
30127;SDS011;16942;53.196;6.592;2022-11-24T04:37:54;16.30;;;3.50;;
30127;SDS011;16942;53.196;6.592;2022-11-24T04:40:20;19.27;;;3.30;;
30127;SDS011;16942;53.196;6.592;2022-11-24T04:42:54;13.47;;;3.70;;
30127;SDS011;16942;53.196;6.592;2022-11-24T04:45:20;13.27;;;3.13;;
30127;SDS011;16942;53.196;6.592;2022-11-24T04:47:46;16.67;;;3.43;;
30127;SDS011;16942;53.196;6.592;2022-11-24T04:50:12;14.10;;;3.77;;
30127;SDS011;16942;53.196;6.592;2022-11-24T04:52:38;18.43;;;4.07;;
30127;SDS011;16942;53.196;6.592;2022-11-24T04:55:04;17.33;;;3.10;;
30127;SDS011;16942;53.196;6.592;2022-11-24T04:57:32;17.67;;;3.40;;
30127;SDS011;16942;53.196;6.592;2022-11-24T04:59:58;18.87;;;3.73;;
30127;SDS011;16942;53.196;6.592;2022-11-24T05:02:24;13.80;;;3.17;;
30127;SDS011;16942;53.196;6.592;2022-11-24T05:04:50;16.90;;;3.30;;
30127;SDS011;16942;53.196;6.592;2022-11-24T05:07:17;14.97;;;3.57;;
30127;SDS011;16942;53.196;6.592;2022-11-24T05:09:43;21.30;;;3.33;;
30127;SDS011;16942;53.196;6.592;2022-11-24T05:12:27;13.93;;;2.90;;
30127;SDS011;16942;53.196;6.592;2022-11-24T05:14:57;14.70;;;3.43;;
30127;SDS011;16942;53.196;6.592;2022-11-24T05:17:23;13.73;;;2.87;;
30127;SDS011;16942;53.196;6.592;2022-11-24T05:19:49;24.87;;;3.40;;
30127;SDS011;16942;53.196;6.592;2022-11-24T05:22:15;11.87;;;3.17;;
30127;SDS011;16942;53.196;6.592;2022-11-24T05:24:41;17.53;;;3.27;;
30127;SDS011;16942;53.196;6.592;2022-11-24T05:27:07;18.47;;;3.87;;
30127;SDS011;16942;53.196;6.592;2022-11-24T05:29:34;10.43;;;3.30;;
30127;SDS011;16942;53.196;6.592;2022-11-24T05:32:00;25.90;;;4.07;;
30127;SDS011;16942;53.196;6.592;2022-11-24T05:34:26;14.17;;;4.03;;
30127;SDS011;16942;53.196;6.592;2022-11-24T05:36:52;19.67;;;6.30;;
30127;SDS011;16942;53.196;6.592;2022-11-24T05:39:19;16.70;;;2.80;;
30127;SDS011;16942;53.196;6.592;2022-11-24T05:41:45;17.97;;;3.20;;
30127;SDS011;16942;53.196;6.592;2022-11-24T05:44:11;25.20;;;3.77;;
30127;SDS011;16942;53.196;6.592;2022-11-24T05:46:37;12.10;;;2.97;;
30127;SDS011;16942;53.196;6.592;2022-11-24T05:49:03;23.63;;;3.30;;
30127;SDS011;16942;53.196;6.592;2022-11-24T05:51:29;14.67;;;4.33;;
30127;SDS011;16942;53.196;6.592;2022-11-24T05:53:57;20.17;;;3.53;;
30127;SDS011;16942;53.196;6.592;2022-11-24T05:56:23;20.57;;;3.83;;
30127;SDS011;16942;53.196;6.592;2022-11-24T05:58:49;19.53;;;3.30;;
30127;SDS011;16942;53.196;6.592;2022-11-24T06:01:15;17.43;;;3.40;;
30127;SDS011;16942;53.196;6.592;2022-11-24T06:03:41;14.20;;;3.20;;
30127;SDS011;16942;53.196;6.592;2022-11-24T06:06:07;15.50;;;3.10;;
30127;SDS011;16942;53.196;6.592;2022-11-24T06:08:33;12.00;;;2.93;;
30127;SDS011;16942;53.196;6.592;2022-11-24T06:11:00;11.47;;;3.13;;
30127;SDS011;16942;53.196;6.592;2022-11-24T06:13:42;12.87;;;2.47;;
30127;SDS011;16942;53.196;6.592;2022-11-24T06:16:08;19.73;;;3.93;;
30127;SDS011;16942;53.196;6.592;2022-11-24T06:18:35;27.10;;;3.43;;
30127;SDS011;16942;53.196;6.592;2022-11-24T06:21:01;16.57;;;2.70;;
30127;SDS011;16942;53.196;6.592;2022-11-24T06:23:27;18.20;;;2.97;;
30127;SDS011;16942;53.196;6.592;2022-11-24T06:25:54;14.97;;;2.50;;
30127;SDS011;16942;53.196;6.592;2022-11-24T06:28:22;16.33;;;3.93;;
30127;SDS011;16942;53.196;6.592;2022-11-24T06:30:48;12.60;;;3.20;;
30127;SDS011;16942;53.196;6.592;2022-11-24T06:33:14;20.77;;;2.90;;
30127;SDS011;16942;53.196;6.592;2022-11-24T06:35:40;12.77;;;3.17;;
30127;SDS011;16942;53.196;6.592;2022-11-24T06:38:06;18.93;;;3.53;;
30127;SDS011;16942;53.196;6.592;2022-11-24T06:40:32;12.63;;;2.80;;
30127;SDS011;16942;53.196;6.592;2022-11-24T06:42:58;17.47;;;3.37;;
30127;SDS011;16942;53.196;6.592;2022-11-24T06:45:24;17.83;;;4.37;;
30127;SDS011;16942;53.196;6.592;2022-11-24T06:47:54;22.87;;;3.23;;
30127;SDS011;16942;53.196;6.592;2022-11-24T06:50:20;17.83;;;2.73;;
30127;SDS011;16942;53.196;6.592;2022-11-24T06:52:46;18.03;;;2.80;;
30127;SDS011;16942;53.196;6.592;2022-11-24T06:55:12;11.70;;;2.27;;
30127;SDS011;16942;53.196;6.592;2022-11-24T06:57:39;17.07;;;2.93;;
30127;SDS011;16942;53.196;6.592;2022-11-24T07:00:06;13.43;;;2.77;;
30127;SDS011;16942;53.196;6.592;2022-11-24T07:02:32;11.80;;;2.93;;
30127;SDS011;16942;53.196;6.592;2022-11-24T07:04:58;14.00;;;2.50;;
30127;SDS011;16942;53.196;6.592;2022-11-24T07:07:24;16.67;;;3.10;;
30127;SDS011;16942;53.196;6.592;2022-11-24T07:09:50;14.40;;;3.20;;
30127;SDS011;16942;53.196;6.592;2022-11-24T07:12:16;10.93;;;2.90;;
30127;SDS011;16942;53.196;6.592;2022-11-24T07:14:42;16.77;;;2.80;;
30127;SDS011;16942;53.196;6.592;2022-11-24T07:17:08;13.17;;;2.87;;
30127;SDS011;16942;53.196;6.592;2022-11-24T07:19:34;20.17;;;3.97;;
30127;SDS011;16942;53.196;6.592;2022-11-24T07:22:00;13.77;;;3.40;;
30127;SDS011;16942;53.196;6.592;2022-11-24T07:24:26;20.80;;;3.67;;
30127;SDS011;16942;53.196;6.592;2022-11-24T07:26:52;17.10;;;4.47;;
30127;SDS011;16942;53.196;6.592;2022-11-24T07:29:19;12.00;;;2.83;;
30127;SDS011;16942;53.196;6.592;2022-11-24T07:31:45;14.47;;;2.53;;
30127;SDS011;16942;53.196;6.592;2022-11-24T07:34:11;15.57;;;3.23;;
30127;SDS011;16942;53.196;6.592;2022-11-24T07:36:38;11.57;;;2.57;;
30127;SDS011;16942;53.196;6.592;2022-11-24T07:39:05;16.67;;;3.40;;
30127;SDS011;16942;53.196;6.592;2022-11-24T07:41:31;16.77;;;3.17;;
30127;SDS011;16942;53.196;6.592;2022-11-24T07:43:57;19.00;;;4.63;;
30127;SDS011;16942;53.196;6.592;2022-11-24T07:46:23;19.00;;;3.80;;
30127;SDS011;16942;53.196;6.592;2022-11-24T07:48:50;15.43;;;3.40;;
30127;SDS011;16942;53.196;6.592;2022-11-24T07:51:16;12.63;;;3.33;;
30127;SDS011;16942;53.196;6.592;2022-11-24T07:53:42;13.97;;;3.43;;
30127;SDS011;16942;53.196;6.592;2022-11-24T07:56:08;14.00;;;3.20;;
30127;SDS011;16942;53.196;6.592;2022-11-24T07:58:35;20.90;;;3.10;;
30127;SDS011;16942;53.196;6.592;2022-11-24T08:01:11;15.40;;;3.30;;
30127;SDS011;16942;53.196;6.592;2022-11-24T08:03:37;15.77;;;3.17;;
30127;SDS011;16942;53.196;6.592;2022-11-24T08:06:03;20.50;;;3.60;;
30127;SDS011;16942;53.196;6.592;2022-11-24T08:08:30;16.07;;;3.60;;
30127;SDS011;16942;53.196;6.592;2022-11-24T08:10:57;16.57;;;4.50;;
30127;SDS011;16942;53.196;6.592;2022-11-24T08:13:23;14.47;;;4.00;;
30127;SDS011;16942;53.196;6.592;2022-11-24T08:15:49;15.03;;;3.83;;
30127;SDS011;16942;53.196;6.592;2022-11-24T08:18:15;15.80;;;3.77;;
30127;SDS011;16942;53.196;6.592;2022-11-24T08:20:41;13.50;;;4.10;;
30127;SDS011;16942;53.196;6.592;2022-11-24T08:23:07;11.77;;;3.13;;
30127;SDS011;16942;53.196;6.592;2022-11-24T08:25:33;22.63;;;4.03;;
30127;SDS011;16942;53.196;6.592;2022-11-24T08:28:01;17.03;;;4.33;;
30127;SDS011;16942;53.196;6.592;2022-11-24T08:30:27;14.53;;;3.57;;
30127;SDS011;16942;53.196;6.592;2022-11-24T08:32:54;15.63;;;5.27;;
30127;SDS011;16942;53.196;6.592;2022-11-24T08:35:20;16.47;;;3.60;;
30127;SDS011;16942;53.196;6.592;2022-11-24T08:37:52;18.70;;;3.80;;
30127;SDS011;16942;53.196;6.592;2022-11-24T08:40:18;16.43;;;4.10;;
30127;SDS011;16942;53.196;6.592;2022-11-24T08:42:45;13.20;;;3.97;;
30127;SDS011;16942;53.196;6.592;2022-11-24T08:45:11;14.57;;;4.03;;
30127;SDS011;16942;53.196;6.592;2022-11-24T08:47:37;16.27;;;4.40;;
30127;SDS011;16942;53.196;6.592;2022-11-24T08:50:04;13.80;;;4.23;;
30127;SDS011;16942;53.196;6.592;2022-11-24T08:52:30;11.63;;;4.23;;
30127;SDS011;16942;53.196;6.592;2022-11-24T08:54:56;15.77;;;4.13;;
30127;SDS011;16942;53.196;6.592;2022-11-24T08:57:22;12.27;;;3.83;;
30127;SDS011;16942;53.196;6.592;2022-11-24T08:59:48;20.57;;;4.90;;
30127;SDS011;16942;53.196;6.592;2022-11-24T09:02:14;18.03;;;4.63;;
30127;SDS011;16942;53.196;6.592;2022-11-24T09:04:40;18.07;;;3.90;;
30127;SDS011;16942;53.196;6.592;2022-11-24T09:07:08;16.70;;;5.33;;
30127;SDS011;16942;53.196;6.592;2022-11-24T09:09:34;13.37;;;4.03;;
30127;SDS011;16942;53.196;6.592;2022-11-24T09:12:00;14.33;;;3.93;;
30127;SDS011;16942;53.196;6.592;2022-11-24T09:14:26;12.40;;;4.00;;
30127;SDS011;16942;53.196;6.592;2022-11-24T09:16:52;18.33;;;4.03;;
30127;SDS011;16942;53.196;6.592;2022-11-24T09:19:18;7.87;;;3.03;;
30127;SDS011;16942;53.196;6.592;2022-11-24T09:21:44;13.93;;;4.50;;
30127;SDS011;16942;53.196;6.592;2022-11-24T09:24:10;15.40;;;4.03;;
30127;SDS011;16942;53.196;6.592;2022-11-24T09:26:36;16.23;;;3.73;;
30127;SDS011;16942;53.196;6.592;2022-11-24T09:29:03;12.03;;;3.10;;
30127;SDS011;16942;53.196;6.592;2022-11-24T09:31:31;12.53;;;3.90;;
30127;SDS011;16942;53.196;6.592;2022-11-24T09:34:00;6.47;;;2.83;;
30127;SDS011;16942;53.196;6.592;2022-11-24T09:36:26;11.90;;;4.03;;
30127;SDS011;16942;53.196;6.592;2022-11-24T09:38:53;10.17;;;3.37;;
30127;SDS011;16942;53.196;6.592;2022-11-24T09:46:22;16.10;;;4.40;;
30127;SDS011;16942;53.196;6.592;2022-11-24T09:48:51;9.83;;;3.13;;
30127;SDS011;16942;53.196;6.592;2022-11-24T09:51:20;11.07;;;3.20;;
30127;SDS011;16942;53.196;6.592;2022-11-24T09:53:56;11.67;;;3.80;;
30127;SDS011;16942;53.196;6.592;2022-11-24T09:56:25;8.60;;;2.90;;
30127;SDS011;16942;53.196;6.592;2022-11-24T10:01:28;8.40;;;2.93;;
30127;SDS011;16942;53.196;6.592;2022-11-24T10:03:55;8.33;;;2.73;;
30127;SDS011;16942;53.196;6.592;2022-11-24T10:14:21;5.97;;;2.10;;
30127;SDS011;16942;53.196;6.592;2022-11-24T10:17:33;7.77;;;2.60;;
30127;SDS011;16942;53.196;6.592;2022-11-24T10:19:42;6.37;;;2.13;;
30127;SDS011;16942;53.196;6.592;2022-11-24T10:27:16;8.43;;;2.30;;
30127;SDS011;16942;53.196;6.592;2022-11-24T10:29:43;9.73;;;2.20;;
30127;SDS011;16942;53.196;6.592;2022-11-24T10:32:14;7.10;;;2.10;;
30127;SDS011;16942;53.196;6.592;2022-11-24T10:34:43;9.23;;;1.90;;
30127;SDS011;16942;53.196;6.592;2022-11-24T10:42:35;5.30;;;1.83;;
30127;SDS011;16942;53.196;6.592;2022-11-24T10:47:27;6.00;;;1.83;;
30127;SDS011;16942;53.196;6.592;2022-11-24T10:49:55;7.43;;;1.60;;
30127;SDS011;16942;53.196;6.592;2022-11-24T10:52:23;5.53;;;1.63;;
30127;SDS011;16942;53.196;6.592;2022-11-24T10:54:59;6.70;;;1.80;;
30127;SDS011;16942;53.196;6.592;2022-11-24T10:57:27;4.00;;;1.80;;
30127;SDS011;16942;53.196;6.592;2022-11-24T10:59:53;2.93;;;1.63;;
30127;SDS011;16942;53.196;6.592;2022-11-24T11:04:58;4.23;;;1.70;;
30127;SDS011;16942;53.196;6.592;2022-11-24T11:07:44;6.33;;;2.03;;
30127;SDS011;16942;53.196;6.592;2022-11-24T11:10:18;10.40;;;2.13;;
30127;SDS011;16942;53.196;6.592;2022-11-24T11:12:44;4.57;;;1.67;;
30127;SDS011;16942;53.196;6.592;2022-11-24T11:15:23;5.93;;;1.73;;
30127;SDS011;16942;53.196;6.592;2022-11-24T11:17:50;8.37;;;1.47;;
30127;SDS011;16942;53.196;6.592;2022-11-24T11:20:21;10.67;;;1.77;;
30127;SDS011;16942;53.196;6.592;2022-11-24T11:22:47;3.90;;;1.33;;
30127;SDS011;16942;53.196;6.592;2022-11-24T11:27:43;5.33;;;1.53;;
30127;SDS011;16942;53.196;6.592;2022-11-24T11:30:20;4.13;;;1.70;;
30127;SDS011;16942;53.196;6.592;2022-11-24T11:32:51;3.90;;;1.63;;
30127;SDS011;16942;53.196;6.592;2022-11-24T11:35:17;5.17;;;1.60;;
30127;SDS011;16942;53.196;6.592;2022-11-24T11:37:44;6.37;;;1.63;;
30127;SDS011;16942;53.196;6.592;2022-11-24T11:40:13;5.03;;;1.40;;
30127;SDS011;16942;53.196;6.592;2022-11-24T11:42:42;8.20;;;1.60;;
30127;SDS011;16942;53.196;6.592;2022-11-24T11:45:19;5.73;;;1.37;;
30127;SDS011;16942;53.196;6.592;2022-11-24T11:47:50;5.13;;;1.70;;
30127;SDS011;16942;53.196;6.592;2022-11-24T11:58:33;5.17;;;1.53;;
30127;SDS011;16942;53.196;6.592;2022-11-24T12:01:15;6.43;;;1.87;;
30127;SDS011;16942;53.196;6.592;2022-11-24T12:03:49;6.17;;;1.93;;
30127;SDS011;16942;53.196;6.592;2022-11-24T12:06:39;9.30;;;1.83;;
30127;SDS011;16942;53.196;6.592;2022-11-24T12:12:17;4.45;;;1.42;;
30127;SDS011;16942;53.196;6.592;2022-11-24T12:24:56;4.57;;;1.50;;
30127;SDS011;16942;53.196;6.592;2022-11-24T12:29:52;7.38;;;2.30;;
30127;SDS011;16942;53.196;6.592;2022-11-24T12:37:51;9.90;;;2.60;;
30127;SDS011;16942;53.196;6.592;2022-11-24T12:43:03;7.82;;;1.80;;
30127;SDS011;16942;53.196;6.592;2022-11-24T12:50:28;5.45;;;1.60;;
30127;SDS011;16942;53.196;6.592;2022-11-24T12:53:01;7.27;;;1.70;;
30127;SDS011;16942;53.196;6.592;2022-11-24T12:55:28;6.53;;;2.07;;
30127;SDS011;16942;53.196;6.592;2022-11-24T12:58:01;5.20;;;1.63;;
30127;SDS011;16942;53.196;6.592;2022-11-24T13:05:55;7.00;;;1.60;;
30127;SDS011;16942;53.196;6.592;2022-11-24T13:08:12;6.17;;;1.67;;
30127;SDS011;16942;53.196;6.592;2022-11-24T13:10:39;7.90;;;1.90;;
30127;SDS011;16942;53.196;6.592;2022-11-24T13:13:06;7.43;;;1.67;;
30127;SDS011;16942;53.196;6.592;2022-11-24T13:16:09;8.43;;;1.67;;
30127;SDS011;16942;53.196;6.592;2022-11-24T13:23:57;10.63;;;2.00;;
30127;SDS011;16942;53.196;6.592;2022-11-24T13:31:49;9.77;;;2.47;;
30127;SDS011;16942;53.196;6.592;2022-11-24T13:35:15;11.67;;;1.90;;
30127;SDS011;16942;53.196;6.592;2022-11-24T13:39:57;12.57;;;2.40;;
30127;SDS011;16942;53.196;6.592;2022-11-24T13:42:24;9.10;;;1.90;;
30127;SDS011;16942;53.196;6.592;2022-11-24T13:44:54;8.80;;;2.03;;
30127;SDS011;16942;53.196;6.592;2022-11-24T13:49:57;12.73;;;2.00;;
30127;SDS011;16942;53.196;6.592;2022-11-24T13:57:37;11.17;;;1.70;;
30127;SDS011;16942;53.196;6.592;2022-11-24T14:00:17;13.13;;;1.97;;
30127;SDS011;16942;53.196;6.592;2022-11-24T14:02:43;8.93;;;2.17;;
30127;SDS011;16942;53.196;6.592;2022-11-24T14:05:16;6.90;;;1.90;;
30127;SDS011;16942;53.196;6.592;2022-11-24T14:07:42;14.27;;;2.30;;
30127;SDS011;16942;53.196;6.592;2022-11-24T14:10:13;12.53;;;2.23;;
30127;SDS011;16942;53.196;6.592;2022-11-24T14:12:40;9.13;;;1.70;;
30127;SDS011;16942;53.196;6.592;2022-11-24T14:15:21;7.63;;;2.00;;
30127;SDS011;16942;53.196;6.592;2022-11-24T14:17:47;8.23;;;1.77;;
30127;SDS011;16942;53.196;6.592;2022-11-24T14:20:23;9.33;;;2.10;;
30127;SDS011;16942;53.196;6.592;2022-11-24T14:22:49;10.70;;;2.70;;
30127;SDS011;16942;53.196;6.592;2022-11-24T14:25:37;11.63;;;2.03;;
30127;SDS011;16942;53.196;6.592;2022-11-24T14:28:02;10.43;;;2.17;;
30127;SDS011;16942;53.196;6.592;2022-11-24T14:30:38;14.50;;;2.03;;
30127;SDS011;16942;53.196;6.592;2022-11-24T14:33:08;10.03;;;2.10;;
30127;SDS011;16942;53.196;6.592;2022-11-24T14:35:41;7.53;;;2.40;;
30127;SDS011;16942;53.196;6.592;2022-11-24T14:38:07;12.33;;;1.90;;
30127;SDS011;16942;53.196;6.592;2022-11-24T14:43:02;14.00;;;2.67;;
30127;SDS011;16942;53.196;6.592;2022-11-24T14:45:29;12.97;;;2.47;;
30127;SDS011;16942;53.196;6.592;2022-11-24T14:47:55;11.67;;;2.43;;
30127;SDS011;16942;53.196;6.592;2022-11-24T14:50:21;14.43;;;2.37;;
30127;SDS011;16942;53.196;6.592;2022-11-24T14:52:54;9.57;;;2.17;;
30127;SDS011;16942;53.196;6.592;2022-11-24T14:55:22;15.37;;;2.00;;
30127;SDS011;16942;53.196;6.592;2022-11-24T14:57:48;14.37;;;2.77;;
30127;SDS011;16942;53.196;6.592;2022-11-24T15:02:47;11.30;;;2.50;;
30127;SDS011;16942;53.196;6.592;2022-11-24T15:05:15;13.43;;;2.40;;
30127;SDS011;16942;53.196;6.592;2022-11-24T15:07:42;16.17;;;2.60;;
30127;SDS011;16942;53.196;6.592;2022-11-24T15:10:17;9.50;;;2.17;;
30127;SDS011;16942;53.196;6.592;2022-11-24T15:12:54;8.70;;;2.17;;
30127;SDS011;16942;53.196;6.592;2022-11-24T15:15:22;8.47;;;2.90;;
30127;SDS011;16942;53.196;6.592;2022-11-24T15:17:56;11.00;;;2.77;;
30127;SDS011;16942;53.196;6.592;2022-11-24T15:20:33;12.53;;;2.53;;
30127;SDS011;16942;53.196;6.592;2022-11-24T15:25:38;12.60;;;3.07;;
30127;SDS011;16942;53.196;6.592;2022-11-24T15:28:04;14.97;;;2.80;;
30127;SDS011;16942;53.196;6.592;2022-11-24T15:30:30;13.43;;;2.50;;
30127;SDS011;16942;53.196;6.592;2022-11-24T15:32:58;10.27;;;2.80;;
30127;SDS011;16942;53.196;6.592;2022-11-24T15:35:25;14.70;;;3.37;;
30127;SDS011;16942;53.196;6.592;2022-11-24T15:37:51;13.97;;;3.20;;
30127;SDS011;16942;53.196;6.592;2022-11-24T15:40:17;12.17;;;2.50;;
30127;SDS011;16942;53.196;6.592;2022-11-24T15:42:53;15.23;;;2.37;;
30127;SDS011;16942;53.196;6.592;2022-11-24T15:45:20;10.27;;;2.70;;
30127;SDS011;16942;53.196;6.592;2022-11-24T15:47:47;11.20;;;2.20;;
30127;SDS011;16942;53.196;6.592;2022-11-24T15:50:13;12.63;;;2.27;;
30127;SDS011;16942;53.196;6.592;2022-11-24T15:52:39;10.20;;;2.60;;
30127;SDS011;16942;53.196;6.592;2022-11-24T15:55:06;12.90;;;2.87;;
30127;SDS011;16942;53.196;6.592;2022-11-24T15:57:34;11.57;;;3.07;;
30127;SDS011;16942;53.196;6.592;2022-11-24T16:00:00;15.47;;;2.90;;
30127;SDS011;16942;53.196;6.592;2022-11-24T16:02:26;14.93;;;3.27;;
30127;SDS011;16942;53.196;6.592;2022-11-24T16:04:52;10.70;;;3.20;;
30127;SDS011;16942;53.196;6.592;2022-11-24T16:07:18;14.67;;;2.70;;
30127;SDS011;16942;53.196;6.592;2022-11-24T16:09:44;15.37;;;3.93;;
30127;SDS011;16942;53.196;6.592;2022-11-24T16:12:10;15.87;;;3.20;;
30127;SDS011;16942;53.196;6.592;2022-11-24T16:14:36;14.17;;;4.10;;
30127;SDS011;16942;53.196;6.592;2022-11-24T16:17:02;11.93;;;3.33;;
30127;SDS011;16942;53.196;6.592;2022-11-24T16:19:29;16.27;;;3.37;;
30127;SDS011;16942;53.196;6.592;2022-11-24T16:21:55;15.07;;;4.20;;
30127;SDS011;16942;53.196;6.592;2022-11-24T16:24:21;17.43;;;3.50;;
30127;SDS011;16942;53.196;6.592;2022-11-24T16:26:47;17.90;;;4.00;;
30127;SDS011;16942;53.196;6.592;2022-11-24T16:29:13;14.87;;;4.03;;
30127;SDS011;16942;53.196;6.592;2022-11-24T16:31:39;8.47;;;3.40;;